Time;durP1;ratioP1;P1;durP2;ratioP2;P2;SDS_P1;SDS_P2;PMS_P1;PMS_P2;Temp;Humidity;BMP_temperature;BMP_pressure;BME280_temperature;BME280_humidity;BME280_pressure;Samples;Min_cycle;Max_cycle;Signal;HPM_P1;HPM_P2
2023/03/01 00:01:48;;;;;;;2.05;1.60;;;5.80;99.90;;;;;;5063670;28;20208;-49
2023/03/01 00:04:17;;;;;;;2.35;1.60;;;5.80;99.90;;;;;;5068497;28;20220;-48
2023/03/01 00:06:47;;;;;;;2.60;1.60;;;5.80;99.90;;;;;;5068575;28;20204;-51
2023/03/01 00:09:16;;;;;;;1.85;1.65;;;5.80;99.90;;;;;;5067652;28;20204;-47
2023/03/01 00:11:45;;;;;;;1.90;1.52;;;5.80;99.90;;;;;;5065287;28;20220;-48
2023/03/01 00:14:16;;;;;;;4.25;1.77;;;5.80;99.90;;;;;;5077717;28;20239;-49
2023/03/01 00:16:46;;;;;;;2.22;1.83;;;5.80;99.90;;;;;;5068174;28;20230;-50
2023/03/01 00:19:16;;;;;;;1.65;1.30;;;5.80;99.90;;;;;;5067808;28;21414;-47
2023/03/01 00:21:47;;;;;;;3.38;1.95;;;5.80;99.90;;;;;;5067652;28;20690;-50
2023/03/01 00:24:16;;;;;;;2.17;1.95;;;5.80;99.90;;;;;;5066561;28;20223;-48
2023/03/01 00:26:44;;;;;;;2.38;1.67;;;5.80;99.90;;;;;;5066241;28;20219;-47
2023/03/01 00:29:13;;;;;;;1.83;1.73;;;5.80;99.90;;;;;;5066012;28;20231;-50
2023/03/01 00:31:41;;;;;;;2.03;1.50;;;5.80;99.90;;;;;;5068026;28;20228;-47
2023/03/01 00:34:11;;;;;;;2.45;1.73;;;5.80;99.90;;;;;;5068085;28;20234;-49
2023/03/01 00:36:39;;;;;;;1.60;1.50;;;5.80;99.90;;;;;;5069457;28;20192;-50
2023/03/01 00:39:13;;;;;;;1.83;1.67;;;5.80;99.90;;;;;;5067554;28;20283;-50
2023/03/01 00:41:41;;;;;;;1.65;1.38;;;5.80;99.90;;;;;;5085976;28;20204;-47
2023/03/01 00:44:11;;;;;;;2.10;1.60;;;5.80;99.90;;;;;;5066354;28;20264;-50
2023/03/01 00:46:40;;;;;;;3.03;1.90;;;5.80;99.90;;;;;;5068441;28;20200;-50
2023/03/01 00:49:08;;;;;;;1.83;1.67;;;5.80;99.90;;;;;;5063210;28;20190;-49
2023/03/01 00:51:39;;;;;;;1.92;1.60;;;5.80;99.90;;;;;;5066692;28;20216;-47
2023/03/01 00:54:10;;;;;;;1.83;1.60;;;5.80;99.90;;;;;;5067299;28;20278;-47
2023/03/01 00:56:41;;;;;;;2.17;1.50;;;5.80;99.90;;;;;;5064818;28;20201;-49
2023/03/01 00:59:10;;;;;;;1.60;1.50;;;5.70;99.90;;;;;;5083598;28;20197;-49
2023/03/01 01:01:40;;;;;;;2.15;1.92;;;5.80;99.90;;;;;;5065992;28;20612;-47
2023/03/01 01:04:10;;;;;;;2.40;1.75;;;5.70;99.90;;;;;;5063090;28;20302;-51
2023/03/01 01:06:44;;;;;;;3.15;2.40;;;5.70;99.90;;;;;;5059804;28;20197;-50
2023/03/01 01:09:18;;;;;;;2.33;1.88;;;5.70;99.90;;;;;;5065321;28;20202;-51
2023/03/01 01:11:48;;;;;;;2.40;1.73;;;5.70;99.90;;;;;;5069109;28;20212;-48
2023/03/01 01:14:18;;;;;;;2.72;1.98;;;5.70;99.90;;;;;;5067181;28;20228;-48
2023/03/01 01:16:46;;;;;;;2.10;1.90;;;5.70;99.90;;;;;;5061308;28;21366;-51
2023/03/01 01:19:15;;;;;;;2.55;2.13;;;5.70;99.90;;;;;;5062716;28;20196;-47
2023/03/01 01:21:45;;;;;;;1.88;1.65;;;5.70;99.90;;;;;;5070302;28;20322;-49
2023/03/01 01:24:15;;;;;;;2.78;2.08;;;5.70;99.90;;;;;;5064188;28;20205;-48
2023/03/01 01:26:44;;;;;;;2.15;1.67;;;5.70;99.90;;;;;;5064445;28;20288;-49
2023/03/01 01:29:14;;;;;;;2.38;1.70;;;5.70;99.90;;;;;;5067378;28;20238;-48
2023/03/01 01:31:43;;;;;;;2.10;1.75;;;5.70;99.90;;;;;;5067673;28;20220;-48
2023/03/01 01:34:15;;;;;;;2.25;2.03;;;5.70;99.90;;;;;;5045011;28;20635;-49
2023/03/01 01:36:44;;;;;;;2.50;2.00;;;5.70;99.90;;;;;;5064136;28;20638;-49
2023/03/01 01:39:14;;;;;;;2.30;1.85;;;5.70;99.90;;;;;;5065094;28;20265;-48
2023/03/01 01:41:43;;;;;;;2.58;2.03;;;5.70;99.90;;;;;;5068022;28;20220;-51
2023/03/01 01:44:15;;;;;;;2.10;1.50;;;5.70;99.90;;;;;;5066728;28;20192;-51
2023/03/01 01:46:48;;;;;;;2.00;1.80;;;5.70;99.90;;;;;;5066900;28;20436;-48
2023/03/01 01:49:25;;;;;;;2.15;1.92;;;5.70;99.90;;;;;;5067425;28;20231;-49
2023/03/01 01:52:01;;;;;;;2.33;2.13;;;5.70;99.90;;;;;;5066286;28;20299;-50
2023/03/01 01:54:42;;;;;;;3.20;1.90;;;5.70;99.90;;;;;;5059718;28;20207;-48
2023/03/01 01:57:17;;;;;;;2.60;2.17;;;5.70;99.90;;;;;;5062506;28;20196;-47
2023/03/01 01:59:50;;;;;;;2.85;2.25;;;5.70;99.90;;;;;;5063477;28;20219;-48
2023/03/01 02:02:19;;;;;;;1.92;1.70;;;5.70;99.90;;;;;;5085711;28;20706;-51
2023/03/01 02:04:50;;;;;;;2.10;1.90;;;5.70;99.90;;;;;;5062891;28;20224;-48
2023/03/01 02:07:22;;;;;;;2.53;2.28;;;5.70;99.90;;;;;;5063733;28;20219;-50
2023/03/01 02:09:53;;;;;;;1.95;1.73;;;5.70;99.90;;;;;;5071221;28;21242;-65
2023/03/01 02:12:25;;;;;;;2.20;1.80;;;5.60;99.90;;;;;;5081968;28;20213;-55
2023/03/01 02:14:54;;;;;;;2.35;1.90;;;5.70;99.90;;;;;;5069015;28;20309;-49
2023/03/01 02:17:23;;;;;;;2.28;1.98;;;5.70;99.90;;;;;;5065885;28;20215;-51
2023/03/01 02:20:06;;;;;;;2.30;1.85;;;5.70;99.90;;;;;;5063300;28;20220;-48
2023/03/01 02:22:38;;;;;;;3.05;2.15;;;5.60;99.90;;;;;;5066011;28;20251;-47
2023/03/01 02:25:21;;;;;;;2.70;2.05;;;5.60;99.90;;;;;;5058404;28;20403;-49
2023/03/01 02:27:59;;;;;;;2.97;2.53;;;5.60;99.90;;;;;;5066953;28;20200;-49
2023/03/01 02:30:30;;;;;;;3.50;3.00;;;5.60;99.90;;;;;;5062038;28;20223;-49
2023/03/01 02:33:02;;;;;;;4.10;2.33;;;5.60;99.90;;;;;;5065088;28;20223;-49
2023/03/01 02:35:34;;;;;;;3.28;2.42;;;5.60;99.90;;;;;;5065496;28;20227;-49
2023/03/01 02:38:07;;;;;;;2.72;1.90;;;5.60;99.90;;;;;;5067442;28;20205;-48
2023/03/01 02:40:38;;;;;;;2.83;2.22;;;5.60;99.90;;;;;;5062858;28;20220;-48
2023/03/01 02:43:11;;;;;;;2.65;2.45;;;5.60;99.90;;;;;;5067395;28;20189;-48
2023/03/01 02:45:50;;;;;;;2.17;1.75;;;5.60;99.90;;;;;;5070488;28;20222;-48
2023/03/01 02:48:19;;;;;;;2.95;2.05;;;5.60;99.90;;;;;;5086190;28;20196;-48
2023/03/01 02:51:04;;;;;;;2.35;1.95;;;5.60;99.90;;;;;;5068278;28;20294;-48
2023/03/01 02:53:42;;;;;;;2.55;2.35;;;5.60;99.90;;;;;;5068946;28;20219;-49
2023/03/01 02:56:13;;;;;;;2.33;2.13;;;5.60;99.90;;;;;;5073538;28;20219;-49
2023/03/01 02:58:45;;;;;;;3.08;2.40;;;5.60;99.90;;;;;;5067169;28;20244;-49
2023/03/01 03:01:16;;;;;;;3.90;2.60;;;5.60;99.90;;;;;;5063785;28;20316;-51
2023/03/01 03:03:45;;;;;;;2.97;1.98;;;5.50;99.90;;;;;;5067992;28;20285;-50
2023/03/01 03:06:14;;;;;;;3.38;2.00;;;5.60;99.90;;;;;;5066532;28;20191;-49
2023/03/01 03:08:43;;;;;;;3.10;2.67;;;5.60;99.90;;;;;;5070520;28;20198;-49
2023/03/01 03:11:12;;;;;;;2.88;2.15;;;5.60;99.90;;;;;;5073080;28;20224;-48
2023/03/01 03:13:47;;;;;;;3.28;2.00;;;5.60;99.90;;;;;;5070347;28;20220;-51
2023/03/01 03:16:19;;;;;;;2.80;2.22;;;5.60;99.90;;;;;;5070373;28;20224;-49
2023/03/01 03:18:48;;;;;;;3.08;1.95;;;5.50;99.90;;;;;;5077182;28;20269;-48
2023/03/01 03:21:17;;;;;;;3.40;2.50;;;5.50;99.90;;;;;;5071293;28;20711;-47
2023/03/01 03:23:46;;;;;;;2.42;2.05;;;5.50;99.90;;;;;;5066270;28;20706;-49
2023/03/01 03:26:14;;;;;;;2.65;2.10;;;5.50;99.90;;;;;;5068947;28;20742;-50
2023/03/01 03:28:43;;;;;;;3.00;2.30;;;5.50;99.90;;;;;;5071552;28;20208;-50
2023/03/01 03:31:12;;;;;;;4.13;2.75;;;5.50;99.90;;;;;;5080998;28;20434;-48
2023/03/01 03:33:42;;;;;;;3.67;2.45;;;5.50;99.90;;;;;;5070047;28;20223;-49
2023/03/01 03:36:12;;;;;;;2.92;2.45;;;5.50;99.90;;;;;;5067245;28;20221;-50
2023/03/01 03:38:41;;;;;;;2.95;2.10;;;5.50;99.90;;;;;;5064765;28;20193;-48
2023/03/01 03:41:10;;;;;;;3.25;2.95;;;5.50;99.90;;;;;;5066228;28;20224;-50
2023/03/01 03:43:40;;;;;;;3.88;2.97;;;5.50;99.90;;;;;;5065302;28;20243;-50
2023/03/01 03:46:09;;;;;;;2.50;2.30;;;5.50;99.90;;;;;;5068337;28;20229;-50
2023/03/01 03:48:40;;;;;;;3.40;2.60;;;5.50;99.90;;;;;;5070200;28;20206;-49
2023/03/01 03:51:13;;;;;;;4.00;2.78;;;5.50;99.90;;;;;;5067124;28;20225;-51
2023/03/01 03:53:43;;;;;;;4.97;2.92;;;5.50;99.90;;;;;;5071271;28;20217;-49
2023/03/01 03:56:11;;;;;;;3.10;2.15;;;5.50;99.90;;;;;;5085995;28;20531;-49
2023/03/01 03:58:40;;;;;;;3.63;2.38;;;5.50;99.90;;;;;;5063557;28;20215;-48
2023/03/01 04:01:09;;;;;;;3.17;2.42;;;5.50;99.90;;;;;;5070448;28;20235;-48
2023/03/01 04:03:37;;;;;;;2.63;2.25;;;5.50;99.90;;;;;;5082358;28;20191;-47
2023/03/01 04:06:06;;;;;;;2.47;2.15;;;5.50;99.90;;;;;;5065053;28;20216;-50
2023/03/01 04:08:36;;;;;;;2.97;2.50;;;5.50;99.90;;;;;;5064250;28;20657;-48
2023/03/01 04:13:48;;;;;;;3.08;2.42;;;5.50;99.90;;;;;;5060780;28;20208;-50
2023/03/01 04:16:17;;;;;;;3.35;2.40;;;5.40;99.90;;;;;;5069758;28;20200;-50
2023/03/01 04:18:46;;;;;;;3.20;2.58;;;5.40;99.90;;;;;;5084431;28;20646;-48
2023/03/01 04:21:15;;;;;;;3.17;2.05;;;5.40;99.90;;;;;;5064139;28;20212;-49
2023/03/01 04:23:45;;;;;;;3.10;2.80;;;5.40;99.90;;;;;;5069050;28;20661;-48
2023/03/01 04:26:14;;;;;;;3.40;2.75;;;5.40;99.90;;;;;;5070417;28;20196;-49
2023/03/01 04:28:44;;;;;;;3.45;2.50;;;5.40;99.90;;;;;;5065797;28;20215;-48
2023/03/01 04:31:17;;;;;;;4.10;2.55;;;5.40;99.90;;;;;;5087728;28;20234;-49
2023/03/01 04:33:48;;;;;;;4.13;3.60;;;5.40;99.90;;;;;;5063239;28;20277;-48
2023/03/01 04:36:17;;;;;;;3.30;2.75;;;5.40;99.90;;;;;;5055096;28;20669;-47
2023/03/01 04:38:48;;;;;;;3.63;2.70;;;5.40;99.90;;;;;;5067648;28;20214;-50
2023/03/01 04:41:18;;;;;;;2.75;2.15;;;5.40;99.90;;;;;;5064071;28;20693;-49
2023/03/01 04:43:46;;;;;;;3.75;2.38;;;5.40;99.90;;;;;;5066011;28;20194;-47
2023/03/01 04:46:17;;;;;;;3.22;2.47;;;5.40;99.90;;;;;;5067910;28;20228;-48
2023/03/01 04:48:47;;;;;;;5.00;2.83;;;5.40;99.90;;;;;;5065929;28;20193;-47
2023/03/01 04:51:16;;;;;;;3.85;3.08;;;5.40;99.90;;;;;;5067796;28;20220;-48
2023/03/01 04:53:45;;;;;;;3.05;2.35;;;5.40;99.90;;;;;;5065508;28;20672;-50
2023/03/01 04:56:17;;;;;;;2.85;2.55;;;5.40;99.90;;;;;;5065471;28;20758;-48
2023/03/01 04:58:46;;;;;;;4.28;2.75;;;5.40;99.90;;;;;;5084409;28;20213;-49
2023/03/01 05:01:19;;;;;;;2.40;2.20;;;5.30;99.90;;;;;;5064427;28;20211;-48
2023/03/01 05:03:49;;;;;;;4.18;2.53;;;5.40;99.90;;;;;;5066256;28;20188;-47
2023/03/01 05:06:18;;;;;;;3.95;2.80;;;5.40;99.90;;;;;;5063334;28;20196;-50
2023/03/01 05:08:47;;;;;;;3.10;2.42;;;5.30;99.90;;;;;;5062640;28;20188;-47
2023/03/01 05:11:17;;;;;;;4.70;2.67;;;5.30;99.90;;;;;;5067314;28;20223;-50
2023/03/01 05:13:45;;;;;;;3.38;2.90;;;5.30;99.90;;;;;;5063841;28;20211;-48
2023/03/01 05:16:14;;;;;;;4.53;2.65;;;5.30;99.90;;;;;;5079437;28;20289;-48
2023/03/01 05:18:43;;;;;;;3.42;2.72;;;5.30;99.90;;;;;;5068509;28;20310;-48
2023/03/01 05:21:13;;;;;;;3.28;2.65;;;5.30;99.90;;;;;;5065789;28;20223;-48
2023/03/01 05:23:45;;;;;;;2.95;2.60;;;5.30;99.90;;;;;;5082761;28;20284;-48
2023/03/01 05:26:13;;;;;;;4.03;3.20;;;5.30;99.90;;;;;;5069605;28;20192;-50
2023/03/01 05:28:58;;;;;;;4.65;3.17;;;5.30;99.90;;;;;;5060053;28;20231;-49
2023/03/01 05:31:28;;;;;;;3.92;3.28;;;5.30;99.90;;;;;;5080488;28;20220;-49
2023/03/01 05:33:56;;;;;;;3.08;2.78;;;5.30;99.90;;;;;;5067912;28;20206;-49
2023/03/01 05:36:25;;;;;;;3.10;2.45;;;5.30;99.90;;;;;;5065846;28;20692;-47
2023/03/01 05:38:53;;;;;;;2.88;2.30;;;5.30;99.90;;;;;;5062934;28;20617;-48
2023/03/01 05:41:22;;;;;;;3.97;3.25;;;5.30;99.90;;;;;;5065368;28;20223;-49
2023/03/01 05:43:51;;;;;;;2.90;2.40;;;5.30;99.90;;;;;;5064977;28;20188;-50
2023/03/01 05:46:23;;;;;;;2.70;2.50;;;5.30;99.90;;;;;;5067762;28;20204;-49
2023/03/01 05:48:52;;;;;;;3.15;2.78;;;5.30;99.90;;;;;;5064157;28;20228;-50
2023/03/01 05:51:22;;;;;;;2.85;2.53;;;5.20;99.90;;;;;;5064219;28;20216;-47
2023/03/01 05:53:50;;;;;;;3.05;2.65;;;5.20;99.90;;;;;;5063159;28;20200;-49
2023/03/01 05:56:19;;;;;;;4.40;3.17;;;5.20;99.90;;;;;;5064842;28;20565;-50
2023/03/01 05:58:49;;;;;;;2.72;2.53;;;5.20;99.90;;;;;;5061096;28;20842;-48
2023/03/01 06:01:17;;;;;;;2.92;2.55;;;5.20;99.90;;;;;;5066819;28;20305;-50
2023/03/01 06:03:47;;;;;;;2.85;2.40;;;5.20;99.90;;;;;;5063975;28;20193;-49
2023/03/01 06:06:16;;;;;;;3.85;2.63;;;5.20;99.90;;;;;;5063688;28;20589;-48
2023/03/01 06:08:45;;;;;;;2.83;2.42;;;5.20;99.90;;;;;;5065312;28;20191;-48
2023/03/01 06:11:13;;;;;;;4.30;2.67;;;5.20;99.90;;;;;;5066377;28;20269;-48
2023/03/01 06:13:42;;;;;;;3.45;3.13;;;5.20;99.90;;;;;;5065849;28;20578;-48
2023/03/01 06:16:12;;;;;;;4.47;2.95;;;5.20;99.90;;;;;;5059104;28;20220;-48
2023/03/01 06:18:41;;;;;;;5.65;3.17;;;5.20;99.90;;;;;;5070345;28;20195;-48
2023/03/01 06:21:11;;;;;;;4.95;2.80;;;5.20;99.90;;;;;;5067614;28;20603;-49
2023/03/01 06:23:40;;;;;;;4.10;3.05;;;5.20;99.90;;;;;;5085932;28;20497;-48
2023/03/01 06:26:09;;;;;;;3.70;3.08;;;5.20;99.90;;;;;;5068912;28;20247;-50
2023/03/01 06:28:38;;;;;;;3.05;2.45;;;5.20;99.90;;;;;;5068096;28;20203;-48
2023/03/01 06:31:08;;;;;;;3.67;2.42;;;5.10;99.90;;;;;;5066627;28;20708;-49
2023/03/01 06:33:37;;;;;;;3.55;2.75;;;5.20;99.90;;;;;;5087507;28;20792;-50
2023/03/01 06:36:06;;;;;;;3.70;3.05;;;5.10;99.90;;;;;;5064139;28;20221;-48
2023/03/01 06:38:36;;;;;;;2.60;2.22;;;5.10;99.90;;;;;;5067280;28;20581;-51
2023/03/01 06:41:05;;;;;;;3.83;3.08;;;5.10;99.90;;;;;;5068935;28;20758;-48
2023/03/01 06:43:35;;;;;;;3.70;3.08;;;5.10;99.90;;;;;;5068486;28;20279;-48
2023/03/01 06:46:06;;;;;;;3.75;3.15;;;5.10;99.90;;;;;;5072088;28;20231;-47
2023/03/01 06:48:35;;;;;;;3.45;2.70;;;5.10;99.90;;;;;;5073868;28;20192;-47
2023/03/01 06:51:04;;;;;;;2.78;2.53;;;5.10;99.90;;;;;;5067993;28;20221;-48
2023/03/01 06:53:33;;;;;;;3.30;2.67;;;5.10;99.90;;;;;;5067810;28;20829;-50
2023/03/01 06:56:03;;;;;;;3.78;2.50;;;5.10;99.90;;;;;;5072327;28;20700;-48
2023/03/01 06:58:31;;;;;;;3.10;2.80;;;5.10;99.90;;;;;;5070182;28;20606;-49
2023/03/01 07:01:00;;;;;;;4.20;3.03;;;5.10;99.90;;;;;;5065614;28;20761;-48
2023/03/01 07:03:28;;;;;;;4.32;2.88;;;5.10;99.90;;;;;;5074063;28;20203;-47
2023/03/01 07:05:57;;;;;;;3.75;2.97;;;5.00;99.90;;;;;;5071900;28;20211;-48
2023/03/01 07:08:25;;;;;;;2.95;2.58;;;5.10;99.90;;;;;;5085624;28;20689;-50
2023/03/01 07:10:58;;;;;;;3.28;3.00;;;5.10;99.90;;;;;;5069151;28;20217;-49
2023/03/01 07:13:28;;;;;;;4.50;3.10;;;5.10;99.90;;;;;;5068269;28;20197;-47
2023/03/01 07:15:56;;;;;;;3.78;3.03;;;5.10;99.90;;;;;;5072712;28;20219;-48
2023/03/01 07:18:25;;;;;;;3.60;3.00;;;5.10;99.90;;;;;;5068695;28;20190;-49
2023/03/01 07:20:54;;;;;;;3.80;2.55;;;5.00;99.90;;;;;;5071608;28;20220;-47
2023/03/01 07:23:22;;;;;;;3.85;2.95;;;5.00;99.90;;;;;;5083870;28;20206;-50
2023/03/01 07:25:55;;;;;;;5.88;2.70;;;5.10;99.90;;;;;;5069865;28;20298;-48
2023/03/01 07:28:24;;;;;;;3.35;2.90;;;5.00;99.90;;;;;;5071981;28;20211;-49
2023/03/01 07:30:54;;;;;;;3.95;3.40;;;5.00;99.90;;;;;;5069798;28;20224;-47
2023/03/01 07:33:23;;;;;;;3.75;2.80;;;5.00;99.90;;;;;;5066366;28;20204;-51
2023/03/01 07:35:58;;;;;;;4.00;3.28;;;5.00;99.90;;;;;;5071629;28;20311;-50
2023/03/01 07:38:27;;;;;;;2.63;2.40;;;5.00;99.90;;;;;;5071577;28;20188;-49
2023/03/01 07:40:59;;;;;;;4.53;2.85;;;5.00;99.90;;;;;;5062057;28;20220;-49
2023/03/01 07:43:28;;;;;;;4.28;2.92;;;5.00;99.90;;;;;;5066563;28;20201;-48
2023/03/01 07:46:01;;;;;;;3.53;2.75;;;5.00;99.90;;;;;;5067634;28;20711;-48
2023/03/01 07:48:31;;;;;;;4.05;3.20;;;5.00;99.90;;;;;;5064288;28;20204;-48
2023/03/01 07:50:59;;;;;;;4.55;3.38;;;5.00;99.90;;;;;;5056006;28;20226;-47
2023/03/01 07:53:28;;;;;;;5.10;3.13;;;5.00;99.90;;;;;;5084094;28;20200;-49
2023/03/01 07:56:04;;;;;;;3.05;2.63;;;5.00;99.90;;;;;;5063792;28;20218;-51
2023/03/01 07:58:35;;;;;;;3.95;2.90;;;5.00;99.90;;;;;;5069439;28;20271;-48
2023/03/01 08:01:06;;;;;;;4.15;3.03;;;5.00;99.90;;;;;;5083411;28;20364;-46
2023/03/01 08:03:35;;;;;;;4.47;3.40;;;5.00;99.90;;;;;;5070386;28;20199;-48
2023/03/01 08:06:05;;;;;;;4.68;3.30;;;5.00;99.90;;;;;;5066018;28;20212;-50
2023/03/01 08:08:34;;;;;;;3.92;2.88;;;5.00;99.90;;;;;;5061947;28;20215;-49
2023/03/01 08:11:06;;;;;;;3.88;3.15;;;5.00;99.90;;;;;;5068185;28;20229;-51
2023/03/01 08:13:35;;;;;;;4.68;3.25;;;5.00;99.90;;;;;;5066861;28;20189;-50
2023/03/01 08:16:07;;;;;;;3.70;3.20;;;5.00;99.90;;;;;;5066582;28;20795;-48
2023/03/01 08:18:36;;;;;;;8.68;6.57;;;5.00;99.90;;;;;;5068769;28;20226;-47
2023/03/01 08:21:05;;;;;;;9.53;7.60;;;5.00;99.90;;;;;;5058264;28;20595;-49
2023/03/01 08:23:34;;;;;;;8.10;6.50;;;4.90;99.90;;;;;;5042876;28;20452;-49
2023/03/01 08:26:09;;;;;;;6.78;5.68;;;4.90;99.90;;;;;;5063813;28;20655;-48
2023/03/01 08:28:37;;;;;;;5.70;4.72;;;4.90;99.90;;;;;;5061718;28;20272;-48
2023/03/01 08:31:18;;;;;;;6.45;5.30;;;5.00;99.90;;;;;;5064438;28;20227;-52
2023/03/01 08:33:50;;;;;;;5.40;4.80;;;4.90;99.90;;;;;;5069473;28;20192;-49
2023/03/01 08:36:20;;;;;;;6.32;5.72;;;4.90;99.90;;;;;;5071631;28;20303;-50
2023/03/01 08:38:53;;;;;;;8.85;5.68;;;4.90;99.90;;;;;;5068995;28;20222;-48
2023/03/01 08:41:22;;;;;;;6.38;5.30;;;4.90;99.90;;;;;;5061691;28;20220;-48
2023/03/01 08:43:51;;;;;;;5.75;4.43;;;5.00;99.90;;;;;;5047148;28;20192;-50
2023/03/01 08:46:21;;;;;;;6.03;5.40;;;5.00;99.90;;;;;;5086829;28;20207;-48
2023/03/01 08:48:50;;;;;;;6.88;5.82;;;5.00;99.90;;;;;;5070239;28;20266;-47
2023/03/01 08:51:19;;;;;;;7.05;5.65;;;5.00;99.90;;;;;;5073305;28;20576;-49
2023/03/01 08:53:48;;;;;;;7.07;4.28;;;5.00;99.90;;;;;;5069083;28;20681;-48
2023/03/01 08:56:19;;;;;;;6.10;4.40;;;5.00;99.90;;;;;;5063976;28;20707;-48
2023/03/01 08:58:49;;;;;;;5.93;4.72;;;5.00;99.90;;;;;;5066384;28;20192;-49
2023/03/01 09:01:19;;;;;;;6.05;4.97;;;5.00;99.90;;;;;;5068074;28;20216;-48
2023/03/01 09:03:49;;;;;;;7.68;4.70;;;5.00;99.90;;;;;;5061131;28;20243;-49
2023/03/01 09:06:18;;;;;;;5.57;4.68;;;5.00;99.90;;;;;;5059859;28;20196;-49
2023/03/01 09:08:48;;;;;;;5.40;4.35;;;5.00;99.90;;;;;;5067436;28;20188;-50
2023/03/01 09:11:20;;;;;;;6.78;5.88;;;5.00;99.90;;;;;;5088271;28;20216;-47
2023/03/01 09:13:50;;;;;;;5.95;5.43;;;5.00;99.90;;;;;;5063695;28;20271;-52
2023/03/01 09:16:21;;;;;;;5.28;4.78;;;5.00;99.90;;;;;;5062756;28;20227;-48
2023/03/01 09:18:53;;;;;;;4.53;4.03;;;5.00;99.90;;;;;;5062475;28;20730;-47
2023/03/01 09:21:23;;;;;;;6.22;4.45;;;5.00;99.90;;;;;;5069573;28;20264;-51
2023/03/01 09:24:08;;;;;;;8.75;4.65;;;5.00;99.90;;;;;;5081623;28;20311;-49
2023/03/01 09:26:36;;;;;;;7.22;5.25;;;5.00;99.90;;;;;;5066919;28;20192;-47
2023/03/01 09:29:04;;;;;;;6.30;4.88;;;5.00;99.90;;;;;;5063860;28;20314;-49
2023/03/01 09:31:32;;;;;;;5.65;5.00;;;5.00;99.90;;;;;;5060640;28;20261;-48
2023/03/01 09:34:02;;;;;;;5.45;4.47;;;5.00;99.90;;;;;;5067185;28;20241;-48
2023/03/01 09:36:31;;;;;;;6.20;4.03;;;5.00;99.90;;;;;;5068619;28;20231;-49
2023/03/01 09:39:00;;;;;;;4.95;4.38;;;5.00;99.90;;;;;;5080434;28;20199;-49
2023/03/01 09:41:43;;;;;;;5.53;3.92;;;5.00;99.90;;;;;;5083135;28;20212;-48
2023/03/01 09:44:21;;;;;;;4.85;3.95;;;5.00;99.90;;;;;;5068873;28;20692;-50
2023/03/01 09:46:51;;;;;;;6.45;4.05;;;5.00;99.90;;;;;;5061632;28;20202;-48
2023/03/01 09:49:23;;;;;;;5.43;4.85;;;5.00;99.90;;;;;;5077601;28;20224;-50
2023/03/01 09:51:58;;;;;;;5.07;4.07;;;5.00;99.90;;;;;;5076807;28;20274;-50
2023/03/01 09:54:27;;;;;;;4.38;3.95;;;5.00;99.90;;;;;;5064712;28;20740;-48
2023/03/01 09:57:06;;;;;;;5.38;4.22;;;5.00;99.90;;;;;;5062528;28;20241;-48
2023/03/01 09:59:45;;;;;;;6.68;4.18;;;5.00;99.90;;;;;;5061990;28;20233;-49
2023/03/01 10:02:25;;;;;;;4.13;3.72;;;5.00;99.90;;;;;;5066951;28;20220;-49
2023/03/01 10:05:04;;;;;;;6.25;4.28;;;5.00;99.90;;;;;;5062282;28;20266;-49
2023/03/01 10:07:43;;;;;;;6.60;4.22;;;5.00;99.90;;;;;;5058240;28;20215;-49
2023/03/01 10:10:24;;;;;;;5.93;4.38;;;5.00;99.90;;;;;;5065982;28;20216;-50
2023/03/01 10:12:54;;;;;;;9.80;6.93;;;5.00;99.90;;;;;;5064173;28;20257;-48
2023/03/01 10:15:29;;;;;;;23.50;10.80;;;5.00;99.90;;;;;;5064476;28;20215;-50
2023/03/01 10:18:02;;;;;;;12.90;8.27;;;5.00;99.90;;;;;;5062712;28;20191;-48
2023/03/01 10:20:43;;;;;;;13.93;7.82;;;5.00;99.90;;;;;;5078000;28;20212;-50
2023/03/01 10:23:12;;;;;;;11.85;7.30;;;5.00;99.90;;;;;;5065592;28;20228;-49
2023/03/01 10:25:51;;;;;;;10.13;7.20;;;5.00;99.90;;;;;;5088500;28;20221;-49
2023/03/01 10:28:26;;;;;;;9.68;6.50;;;5.00;99.90;;;;;;5069276;28;20271;-47
2023/03/01 10:30:55;;;;;;;12.88;6.47;;;5.00;99.90;;;;;;5085863;28;20222;-48
2023/03/01 10:33:27;;;;;;;8.75;6.22;;;5.00;99.90;;;;;;5082079;28;20195;-48
2023/03/01 10:35:57;;;;;;;8.48;6.15;;;5.00;99.90;;;;;;5062670;28;20212;-48
2023/03/01 10:38:26;;;;;;;8.02;5.85;;;5.00;99.90;;;;;;5062519;28;20245;-48
2023/03/01 10:40:57;;;;;;;12.18;7.30;;;5.00;99.90;;;;;;5061995;28;20243;-47
2023/03/01 10:43:27;;;;;;;8.10;6.65;;;5.00;99.90;;;;;;5065759;28;20200;-47
2023/03/01 10:45:56;;;;;;;8.18;5.95;;;5.00;99.90;;;;;;5081530;28;20296;-48
2023/03/01 10:48:28;;;;;;;10.93;6.60;;;5.00;99.90;;;;;;5080636;28;20200;-48
2023/03/01 10:51:08;;;;;;;7.03;6.25;;;5.00;99.90;;;;;;5078514;28;20224;-47
2023/03/01 10:53:39;;;;;;;8.15;5.78;;;4.90;99.90;;;;;;5066195;28;20218;-47
2023/03/01 10:56:09;;;;;;;7.10;5.88;;;4.90;99.90;;;;;;5060480;28;20251;-48
2023/03/01 10:58:39;;;;;;;6.63;4.90;;;4.90;99.90;;;;;;5061478;28;20313;-46
2023/03/01 11:01:25;;;;;;;6.80;5.45;;;4.90;99.90;;;;;;5056815;28;20240;-49
2023/03/01 11:04:11;;;;;;;9.63;5.90;;;4.90;99.90;;;;;;5081991;28;20313;-49
2023/03/01 11:06:42;;;;;;;7.35;5.05;;;4.90;99.90;;;;;;5063896;28;20201;-48
2023/03/01 11:09:18;;;;;;;5.68;4.85;;;4.90;99.90;;;;;;5090377;28;20300;-49
2023/03/01 11:11:52;;;;;;;5.80;4.75;;;4.90;99.90;;;;;;5072890;28;20222;-48
2023/03/01 11:14:23;;;;;;;7.40;5.30;;;4.90;99.90;;;;;;5072325;28;20226;-48
2023/03/01 11:17:06;;;;;;;8.57;5.20;;;4.90;99.90;;;;;;5068466;28;20269;-48
2023/03/01 11:19:37;;;;;;;7.85;5.00;;;4.90;99.90;;;;;;5088872;28;20207;-48
2023/03/01 11:22:14;;;;;;;7.35;5.10;;;4.90;99.90;;;;;;5069263;28;20212;-48
2023/03/01 11:24:47;;;;;;;6.63;4.22;;;4.90;99.90;;;;;;5072808;28;20274;-49
2023/03/01 11:27:33;;;;;;;6.85;5.22;;;4.90;99.90;;;;;;5062408;28;20206;-48
2023/03/01 11:30:09;;;;;;;10.95;5.18;;;4.90;99.90;;;;;;5058973;28;20294;-47
2023/03/01 11:32:42;;;;;;;7.35;5.15;;;4.90;99.90;;;;;;5070647;28;20280;-48
2023/03/01 11:35:17;;;;;;;8.75;5.85;;;4.90;99.90;;;;;;5090632;28;20727;-49
2023/03/01 11:38:00;;;;;;;5.57;5.07;;;4.90;99.90;;;;;;5077055;28;20208;-48
2023/03/01 11:40:36;;;;;;;6.55;4.60;;;4.90;99.90;;;;;;5061853;28;20228;-49
2023/03/01 11:43:12;;;;;;;6.80;4.53;;;4.90;99.90;;;;;;5083884;28;20222;-47
2023/03/01 11:45:52;;;;;;;5.72;4.35;;;4.90;99.90;;;;;;5069164;28;20660;-48
2023/03/01 11:48:39;;;;;;;5.22;4.60;;;4.90;99.90;;;;;;5088101;28;20199;-48
2023/03/01 11:51:26;;;;;;;6.90;4.70;;;4.90;99.90;;;;;;5066938;28;20233;-48
2023/03/01 11:54:13;;;;;;;6.57;4.75;;;4.90;99.90;;;;;;5069853;28;20192;-47
2023/03/01 11:56:48;;;;;;;5.80;5.03;;;4.90;99.90;;;;;;5069309;28;20203;-48
2023/03/01 11:59:46;;;;;;;6.88;4.70;;;4.90;99.90;;;;;;5086368;28;20516;-47
2023/03/01 12:02:44;;;;;;;6.10;4.63;;;4.90;99.90;;;;;;5070871;28;20215;-48
2023/03/01 12:05:36;;;;;;;6.30;5.05;;;4.90;99.90;;;;;;5084248;28;20761;-48
2023/03/01 12:08:11;;;;;;;7.97;4.85;;;4.90;99.90;;;;;;5060559;28;20282;-48
2023/03/01 12:10:52;;;;;;;5.45;4.18;;;4.90;99.90;;;;;;5082562;28;20696;-48
2023/03/01 12:13:53;;;;;;;7.40;4.28;;;4.90;99.90;;;;;;5083126;28;20266;-49
2023/03/01 12:16:32;;;;;;;7.30;4.93;;;4.90;99.90;;;;;;5044719;28;20227;-47
2023/03/01 12:19:25;;;;;;;5.45;4.32;;;4.90;99.90;;;;;;5082828;28;20181;-47
2023/03/01 12:22:09;;;;;;;5.05;4.25;;;4.90;99.90;;;;;;5066873;28;20281;-46
2023/03/01 12:24:50;;;;;;;5.82;4.40;;;4.90;99.90;;;;;;5089106;28;20301;-47
2023/03/01 12:27:45;;;;;;;6.55;4.78;;;4.90;99.90;;;;;;5069466;28;20207;-48
2023/03/01 12:30:27;;;;;;;5.45;3.97;;;4.90;99.90;;;;;;5066094;28;20223;-47
2023/03/01 12:33:12;;;;;;;5.40;4.50;;;4.90;99.90;;;;;;5070326;28;20824;-49
2023/03/01 12:35:57;;;;;;;5.53;4.15;;;4.90;99.90;;;;;;5068978;28;20219;-48
2023/03/01 12:38:42;;;;;;;10.45;5.13;;;4.90;99.90;;;;;;5065390;28;20342;-48
2023/03/01 12:41:37;;;;;;;6.50;3.83;;;4.90;99.90;;;;;;5072456;28;20700;-49
2023/03/01 12:44:22;;;;;;;6.93;4.38;;;4.90;99.90;;;;;;5068244;28;20286;-49
2023/03/01 12:47:13;;;;;;;5.03;4.53;;;4.90;99.90;;;;;;5067032;28;20567;-48
2023/03/01 12:49:46;;;;;;;4.45;3.72;;;4.90;99.90;;;;;;5063509;28;20211;-48
2023/03/01 12:52:19;;;;;;;5.90;4.72;;;4.90;99.90;;;;;;5059904;28;20277;-52
2023/03/01 12:54:50;;;;;;;5.60;4.15;;;4.90;99.90;;;;;;5063830;28;20595;-47
2023/03/01 12:57:26;;;;;;;7.03;4.47;;;4.90;99.90;;;;;;5067997;28;21343;-48
2023/03/01 13:00:09;;;;;;;7.97;4.60;;;4.90;99.90;;;;;;5063505;28;20223;-47
2023/03/01 13:02:44;;;;;;;4.85;4.25;;;4.90;99.90;;;;;;5081750;28;20222;-48
2023/03/01 13:05:32;;;;;;;5.82;4.20;;;4.90;99.90;;;;;;5085677;28;20223;-49
2023/03/01 13:08:06;;;;;;;5.15;3.47;;;4.90;99.90;;;;;;5067376;28;20188;-47
2023/03/01 13:10:41;;;;;;;5.90;4.00;;;4.90;99.90;;;;;;5084005;28;20226;-49
2023/03/01 13:13:19;;;;;;;8.10;5.18;;;4.90;99.90;;;;;;5066256;28;20192;-47
2023/03/01 13:15:51;;;;;;;4.20;3.28;;;4.90;99.90;;;;;;5077297;28;20226;-48
2023/03/01 13:18:30;;;;;;;6.15;4.68;;;4.90;99.90;;;;;;5071077;28;20212;-49
2023/03/01 13:21:01;;;;;;;6.20;3.85;;;5.00;99.90;;;;;;5067771;28;20281;-48
2023/03/01 13:23:33;;;;;;;3.97;3.58;;;5.00;99.90;;;;;;5068165;28;20196;-49
2023/03/01 13:26:13;;;;;;;6.75;4.15;;;5.00;99.90;;;;;;5080425;28;20436;-49
2023/03/01 13:28:49;;;;;;;6.18;3.55;;;5.00;99.90;;;;;;5065013;28;20199;-50